sensor_id;sensor_type;location;lat;lon;timestamp;P1;durP1;ratioP1;P2;durP2;ratioP2
5543;SDS011;2795;47.652;13.128;2023-02-12T00:01:20;20.23;;;8.73;;
5543;SDS011;2795;47.652;13.128;2023-02-12T00:03:47;23.70;;;8.63;;
5543;SDS011;2795;47.652;13.128;2023-02-12T00:06:14;18.87;;;8.53;;
5543;SDS011;2795;47.652;13.128;2023-02-12T00:08:43;20.80;;;9.03;;
5543;SDS011;2795;47.652;13.128;2023-02-12T00:11:11;21.47;;;8.43;;
5543;SDS011;2795;47.652;13.128;2023-02-12T00:13:40;19.87;;;9.00;;
5543;SDS011;2795;47.652;13.128;2023-02-12T00:16:07;24.17;;;10.00;;
5543;SDS011;2795;47.652;13.128;2023-02-12T00:18:36;28.87;;;9.60;;
5543;SDS011;2795;47.652;13.128;2023-02-12T00:21:03;18.43;;;8.27;;
5543;SDS011;2795;47.652;13.128;2023-02-12T00:23:31;21.63;;;8.40;;
5543;SDS011;2795;47.652;13.128;2023-02-12T00:25:58;20.47;;;7.60;;
5543;SDS011;2795;47.652;13.128;2023-02-12T00:28:25;24.03;;;8.40;;
5543;SDS011;2795;47.652;13.128;2023-02-12T00:30:52;17.60;;;8.03;;
5543;SDS011;2795;47.652;13.128;2023-02-12T00:33:19;19.30;;;8.30;;
5543;SDS011;2795;47.652;13.128;2023-02-12T00:35:53;16.40;;;7.90;;
5543;SDS011;2795;47.652;13.128;2023-02-12T00:38:23;15.57;;;7.70;;
5543;SDS011;2795;47.652;13.128;2023-02-12T00:40:50;17.30;;;8.57;;
5543;SDS011;2795;47.652;13.128;2023-02-12T00:43:16;17.53;;;7.80;;
5543;SDS011;2795;47.652;13.128;2023-02-12T00:45:44;18.50;;;8.20;;
5543;SDS011;2795;47.652;13.128;2023-02-12T00:48:15;17.87;;;7.80;;
5543;SDS011;2795;47.652;13.128;2023-02-12T00:50:45;19.73;;;8.17;;
5543;SDS011;2795;47.652;13.128;2023-02-12T00:53:13;24.17;;;10.17;;
5543;SDS011;2795;47.652;13.128;2023-02-12T00:55:41;14.73;;;7.73;;
5543;SDS011;2795;47.652;13.128;2023-02-12T00:58:08;21.43;;;8.60;;
5543;SDS011;2795;47.652;13.128;2023-02-12T01:00:36;23.23;;;9.90;;
5543;SDS011;2795;47.652;13.128;2023-02-12T01:03:03;22.80;;;9.70;;
5543;SDS011;2795;47.652;13.128;2023-02-12T01:05:31;23.60;;;10.60;;
5543;SDS011;2795;47.652;13.128;2023-02-12T01:07:57;19.10;;;9.53;;
5543;SDS011;2795;47.652;13.128;2023-02-12T01:10:25;18.37;;;8.83;;
5543;SDS011;2795;47.652;13.128;2023-02-12T01:12:52;23.03;;;8.70;;
5543;SDS011;2795;47.652;13.128;2023-02-12T01:15:19;24.70;;;9.03;;
5543;SDS011;2795;47.652;13.128;2023-02-12T01:17:45;14.10;;;7.97;;
5543;SDS011;2795;47.652;13.128;2023-02-12T01:20:13;15.97;;;8.10;;
5543;SDS011;2795;47.652;13.128;2023-02-12T01:22:42;15.30;;;7.50;;
5543;SDS011;2795;47.652;13.128;2023-02-12T01:25:10;19.00;;;7.90;;
5543;SDS011;2795;47.652;13.128;2023-02-12T01:27:37;17.43;;;7.97;;
5543;SDS011;2795;47.652;13.128;2023-02-12T01:30:04;20.07;;;8.23;;
5543;SDS011;2795;47.652;13.128;2023-02-12T01:32:32;21.23;;;8.50;;
5543;SDS011;2795;47.652;13.128;2023-02-12T01:34:59;18.10;;;9.27;;
5543;SDS011;2795;47.652;13.128;2023-02-12T01:37:27;20.47;;;8.30;;
5543;SDS011;2795;47.652;13.128;2023-02-12T01:39:53;16.90;;;7.90;;
5543;SDS011;2795;47.652;13.128;2023-02-12T01:42:20;18.40;;;8.50;;
5543;SDS011;2795;47.652;13.128;2023-02-12T01:47:58;31.53;;;11.90;;
5543;SDS011;2795;47.652;13.128;2023-02-12T01:50:25;25.67;;;10.90;;
5543;SDS011;2795;47.652;13.128;2023-02-12T01:52:53;23.67;;;9.50;;
5543;SDS011;2795;47.652;13.128;2023-02-12T01:55:22;22.53;;;8.77;;
5543;SDS011;2795;47.652;13.128;2023-02-12T01:57:50;15.20;;;7.63;;
5543;SDS011;2795;47.652;13.128;2023-02-12T02:00:20;21.13;;;8.73;;
5543;SDS011;2795;47.652;13.128;2023-02-12T02:02:50;15.10;;;7.17;;
5543;SDS011;2795;47.652;13.128;2023-02-12T02:05:22;17.87;;;7.80;;
5543;SDS011;2795;47.652;13.128;2023-02-12T02:07:52;19.13;;;7.97;;
5543;SDS011;2795;47.652;13.128;2023-02-12T02:10:19;16.77;;;7.73;;
5543;SDS011;2795;47.652;13.128;2023-02-12T02:12:46;13.57;;;6.90;;
5543;SDS011;2795;47.652;13.128;2023-02-12T02:15:31;16.10;;;8.13;;
5543;SDS011;2795;47.652;13.128;2023-02-12T02:18:00;24.60;;;9.03;;
5543;SDS011;2795;47.652;13.128;2023-02-12T02:31:42;20.00;;;8.80;;
5543;SDS011;2795;47.652;13.128;2023-02-12T02:34:15;17.77;;;7.07;;
5543;SDS011;2795;47.652;13.128;2023-02-12T02:36:52;16.53;;;7.47;;
5543;SDS011;2795;47.652;13.128;2023-02-12T02:39:47;17.77;;;7.63;;
5543;SDS011;2795;47.652;13.128;2023-02-12T02:42:22;18.10;;;8.20;;
5543;SDS011;2795;47.652;13.128;2023-02-12T02:44:53;17.53;;;7.40;;
5543;SDS011;2795;47.652;13.128;2023-02-12T02:47:28;19.20;;;7.67;;
5543;SDS011;2795;47.652;13.128;2023-02-12T02:50:00;19.57;;;7.87;;
5543;SDS011;2795;47.652;13.128;2023-02-12T02:52:30;20.50;;;7.87;;
5543;SDS011;2795;47.652;13.128;2023-02-12T02:55:02;21.03;;;8.23;;
5543;SDS011;2795;47.652;13.128;2023-02-12T02:57:37;13.50;;;7.03;;
5543;SDS011;2795;47.652;13.128;2023-02-12T03:02:51;14.43;;;7.20;;
5543;SDS011;2795;47.652;13.128;2023-02-12T03:05:23;16.60;;;7.70;;
5543;SDS011;2795;47.652;13.128;2023-02-12T03:07:58;22.57;;;8.10;;
5543;SDS011;2795;47.652;13.128;2023-02-12T03:10:28;17.93;;;8.40;;
5543;SDS011;2795;47.652;13.128;2023-02-12T03:13:01;18.77;;;7.47;;
5543;SDS011;2795;47.652;13.128;2023-02-12T03:15:34;17.07;;;7.67;;
5543;SDS011;2795;47.652;13.128;2023-02-12T03:18:09;16.13;;;6.43;;
5543;SDS011;2795;47.652;13.128;2023-02-12T03:20:42;19.53;;;7.80;;
5543;SDS011;2795;47.652;13.128;2023-02-12T03:23:12;24.53;;;8.67;;
5543;SDS011;2795;47.652;13.128;2023-02-12T03:28:27;15.13;;;6.80;;
5543;SDS011;2795;47.652;13.128;2023-02-12T03:33:34;16.73;;;6.90;;
5543;SDS011;2795;47.652;13.128;2023-02-12T03:36:14;13.10;;;6.53;;
5543;SDS011;2795;47.652;13.128;2023-02-12T03:38:52;16.27;;;6.80;;
5543;SDS011;2795;47.652;13.128;2023-02-12T03:41:26;15.20;;;6.73;;
5543;SDS011;2795;47.652;13.128;2023-02-12T03:50:01;15.83;;;7.43;;
5543;SDS011;2795;47.652;13.128;2023-02-12T03:52:35;19.83;;;7.27;;
5543;SDS011;2795;47.652;13.128;2023-02-12T03:55:02;19.00;;;7.80;;
5543;SDS011;2795;47.652;13.128;2023-02-12T03:57:32;12.30;;;6.60;;
5543;SDS011;2795;47.652;13.128;2023-02-12T04:00:05;17.97;;;8.10;;
5543;SDS011;2795;47.652;13.128;2023-02-12T04:02:34;18.27;;;7.37;;
5543;SDS011;2795;47.652;13.128;2023-02-12T04:05:03;15.43;;;8.00;;
5543;SDS011;2795;47.652;13.128;2023-02-12T04:07:33;25.50;;;7.17;;
5543;SDS011;2795;47.652;13.128;2023-02-12T04:10:01;14.90;;;6.23;;
5543;SDS011;2795;47.652;13.128;2023-02-12T04:12:38;19.10;;;7.20;;
5543;SDS011;2795;47.652;13.128;2023-02-12T04:18:03;18.10;;;7.50;;
5543;SDS011;2795;47.652;13.128;2023-02-12T04:34:29;18.93;;;7.40;;
5543;SDS011;2795;47.652;13.128;2023-02-12T04:39:27;21.43;;;7.40;;
5543;SDS011;2795;47.652;13.128;2023-02-12T04:42:01;13.27;;;7.20;;
5543;SDS011;2795;47.652;13.128;2023-02-12T04:44:30;15.43;;;7.10;;
5543;SDS011;2795;47.652;13.128;2023-02-12T04:46:59;17.40;;;8.00;;
5543;SDS011;2795;47.652;13.128;2023-02-12T04:49:26;20.77;;;7.50;;
5543;SDS011;2795;47.652;13.128;2023-02-12T04:51:53;12.97;;;6.67;;
5543;SDS011;2795;47.652;13.128;2023-02-12T04:54:20;14.03;;;6.87;;
5543;SDS011;2795;47.652;13.128;2023-02-12T04:56:48;13.93;;;7.40;;
5543;SDS011;2795;47.652;13.128;2023-02-12T04:59:15;19.40;;;7.57;;
5543;SDS011;2795;47.652;13.128;2023-02-12T05:01:42;20.37;;;7.07;;
5543;SDS011;2795;47.652;13.128;2023-02-12T05:04:09;14.53;;;6.50;;
5543;SDS011;2795;47.652;13.128;2023-02-12T05:06:38;17.70;;;7.33;;
5543;SDS011;2795;47.652;13.128;2023-02-12T05:09:06;15.83;;;7.00;;
5543;SDS011;2795;47.652;13.128;2023-02-12T05:11:33;16.20;;;7.13;;
5543;SDS011;2795;47.652;13.128;2023-02-12T05:13:59;16.37;;;7.70;;
5543;SDS011;2795;47.652;13.128;2023-02-12T05:16:26;15.40;;;6.87;;
5543;SDS011;2795;47.652;13.128;2023-02-12T05:18:53;19.40;;;7.10;;
5543;SDS011;2795;47.652;13.128;2023-02-12T05:21:20;14.37;;;7.47;;
5543;SDS011;2795;47.652;13.128;2023-02-12T05:23:46;31.47;;;6.83;;
5543;SDS011;2795;47.652;13.128;2023-02-12T05:26:17;14.43;;;6.50;;
5543;SDS011;2795;47.652;13.128;2023-02-12T05:28:45;17.13;;;6.77;;
5543;SDS011;2795;47.652;13.128;2023-02-12T05:31:14;13.60;;;6.47;;
5543;SDS011;2795;47.652;13.128;2023-02-12T05:33:46;18.30;;;6.50;;
5543;SDS011;2795;47.652;13.128;2023-02-12T05:36:14;19.77;;;6.40;;
5543;SDS011;2795;47.652;13.128;2023-02-12T05:38:43;12.20;;;6.27;;
5543;SDS011;2795;47.652;13.128;2023-02-12T05:41:14;19.23;;;7.70;;
5543;SDS011;2795;47.652;13.128;2023-02-12T05:43:42;16.87;;;6.80;;
5543;SDS011;2795;47.652;13.128;2023-02-12T05:46:09;19.70;;;7.50;;
5543;SDS011;2795;47.652;13.128;2023-02-12T05:48:37;15.87;;;6.90;;
5543;SDS011;2795;47.652;13.128;2023-02-12T05:51:05;13.13;;;6.73;;
5543;SDS011;2795;47.652;13.128;2023-02-12T05:53:34;20.90;;;7.50;;
5543;SDS011;2795;47.652;13.128;2023-02-12T05:56:06;18.80;;;6.77;;
5543;SDS011;2795;47.652;13.128;2023-02-12T05:58:33;18.77;;;7.40;;
5543;SDS011;2795;47.652;13.128;2023-02-12T06:00:59;16.30;;;7.07;;
5543;SDS011;2795;47.652;13.128;2023-02-12T06:03:26;15.17;;;6.90;;
5543;SDS011;2795;47.652;13.128;2023-02-12T06:05:53;19.07;;;7.60;;
5543;SDS011;2795;47.652;13.128;2023-02-12T06:08:20;17.50;;;7.80;;
5543;SDS011;2795;47.652;13.128;2023-02-12T06:10:47;16.20;;;6.97;;
5543;SDS011;2795;47.652;13.128;2023-02-12T06:13:13;16.83;;;7.40;;
5543;SDS011;2795;47.652;13.128;2023-02-12T06:15:40;21.93;;;7.93;;
5543;SDS011;2795;47.652;13.128;2023-02-12T06:18:08;21.03;;;7.30;;
5543;SDS011;2795;47.652;13.128;2023-02-12T06:20:39;16.13;;;6.93;;
5543;SDS011;2795;47.652;13.128;2023-02-12T06:23:06;23.13;;;7.57;;
5543;SDS011;2795;47.652;13.128;2023-02-12T06:25:33;28.43;;;11.63;;
5543;SDS011;2795;47.652;13.128;2023-02-12T06:27:59;27.97;;;10.60;;
5543;SDS011;2795;47.652;13.128;2023-02-12T06:30:26;27.63;;;10.63;;
5543;SDS011;2795;47.652;13.128;2023-02-12T06:32:53;23.43;;;9.40;;
5543;SDS011;2795;47.652;13.128;2023-02-12T06:35:20;19.70;;;9.00;;
5543;SDS011;2795;47.652;13.128;2023-02-12T06:37:46;19.23;;;7.90;;
5543;SDS011;2795;47.652;13.128;2023-02-12T06:40:13;18.90;;;7.37;;
5543;SDS011;2795;47.652;13.128;2023-02-12T06:42:40;25.33;;;8.80;;
5543;SDS011;2795;47.652;13.128;2023-02-12T06:45:06;21.50;;;8.77;;
5543;SDS011;2795;47.652;13.128;2023-02-12T06:47:34;33.60;;;7.40;;
5543;SDS011;2795;47.652;13.128;2023-02-12T06:50:00;22.03;;;8.37;;
5543;SDS011;2795;47.652;13.128;2023-02-12T06:52:27;20.70;;;7.27;;
5543;SDS011;2795;47.652;13.128;2023-02-12T06:54:55;15.23;;;6.80;;
5543;SDS011;2795;47.652;13.128;2023-02-12T06:57:27;15.63;;;7.67;;
5543;SDS011;2795;47.652;13.128;2023-02-12T06:59:55;25.90;;;8.13;;
5543;SDS011;2795;47.652;13.128;2023-02-12T07:02:30;27.53;;;9.97;;
5543;SDS011;2795;47.652;13.128;2023-02-12T07:04:56;22.43;;;9.80;;
5543;SDS011;2795;47.652;13.128;2023-02-12T07:07:25;22.33;;;9.47;;
5543;SDS011;2795;47.652;13.128;2023-02-12T07:09:54;20.27;;;9.00;;
5543;SDS011;2795;47.652;13.128;2023-02-12T07:12:21;28.83;;;10.23;;
5543;SDS011;2795;47.652;13.128;2023-02-12T07:14:50;28.00;;;11.10;;
5543;SDS011;2795;47.652;13.128;2023-02-12T07:17:16;26.70;;;9.87;;
5543;SDS011;2795;47.652;13.128;2023-02-12T07:19:43;18.63;;;9.03;;
5543;SDS011;2795;47.652;13.128;2023-02-12T07:22:09;22.70;;;9.80;;
5543;SDS011;2795;47.652;13.128;2023-02-12T07:24:36;23.50;;;9.20;;
5543;SDS011;2795;47.652;13.128;2023-02-12T07:27:05;19.37;;;8.70;;
5543;SDS011;2795;47.652;13.128;2023-02-12T07:29:33;20.20;;;9.53;;
5543;SDS011;2795;47.652;13.128;2023-02-12T07:32:03;19.40;;;8.80;;
5543;SDS011;2795;47.652;13.128;2023-02-12T07:34:32;19.30;;;9.83;;
5543;SDS011;2795;47.652;13.128;2023-02-12T07:36:59;20.90;;;9.50;;
5543;SDS011;2795;47.652;13.128;2023-02-12T07:39:27;20.23;;;9.63;;
5543;SDS011;2795;47.652;13.128;2023-02-12T07:41:55;21.30;;;11.30;;
5543;SDS011;2795;47.652;13.128;2023-02-12T07:44:22;21.37;;;10.80;;
5543;SDS011;2795;47.652;13.128;2023-02-12T07:46:49;26.73;;;11.90;;
5543;SDS011;2795;47.652;13.128;2023-02-12T07:49:18;25.53;;;12.73;;
5543;SDS011;2795;47.652;13.128;2023-02-12T07:51:47;28.23;;;14.37;;
5543;SDS011;2795;47.652;13.128;2023-02-12T07:54:15;28.87;;;14.10;;
5543;SDS011;2795;47.652;13.128;2023-02-12T07:56:42;28.60;;;12.97;;
5543;SDS011;2795;47.652;13.128;2023-02-12T07:59:13;25.83;;;11.80;;
5543;SDS011;2795;47.652;13.128;2023-02-12T08:01:44;27.10;;;12.23;;
5543;SDS011;2795;47.652;13.128;2023-02-12T08:04:15;17.43;;;10.40;;
5543;SDS011;2795;47.652;13.128;2023-02-12T08:06:44;23.47;;;11.40;;
5543;SDS011;2795;47.652;13.128;2023-02-12T08:09:15;23.30;;;10.90;;
5543;SDS011;2795;47.652;13.128;2023-02-12T08:11:43;21.23;;;11.07;;
5543;SDS011;2795;47.652;13.128;2023-02-12T08:14:11;27.43;;;12.30;;
5543;SDS011;2795;47.652;13.128;2023-02-12T08:16:42;25.37;;;12.40;;
5543;SDS011;2795;47.652;13.128;2023-02-12T08:19:10;28.50;;;12.20;;
5543;SDS011;2795;47.652;13.128;2023-02-12T08:21:47;26.43;;;12.10;;
5543;SDS011;2795;47.652;13.128;2023-02-12T08:24:15;28.13;;;13.30;;
5543;SDS011;2795;47.652;13.128;2023-02-12T08:26:41;26.63;;;11.77;;
5543;SDS011;2795;47.652;13.128;2023-02-12T08:29:13;29.87;;;13.40;;
5543;SDS011;2795;47.652;13.128;2023-02-12T08:31:45;24.50;;;11.63;;
5543;SDS011;2795;47.652;13.128;2023-02-12T08:34:17;27.53;;;13.63;;
5543;SDS011;2795;47.652;13.128;2023-02-12T08:36:45;31.60;;;13.33;;
5543;SDS011;2795;47.652;13.128;2023-02-12T08:39:14;29.40;;;13.70;;
5543;SDS011;2795;47.652;13.128;2023-02-12T08:41:42;32.30;;;12.90;;
5543;SDS011;2795;47.652;13.128;2023-02-12T08:44:09;29.27;;;13.40;;
5543;SDS011;2795;47.652;13.128;2023-02-12T08:46:37;29.63;;;13.43;;
5543;SDS011;2795;47.652;13.128;2023-02-12T08:49:07;25.07;;;13.20;;
5543;SDS011;2795;47.652;13.128;2023-02-12T08:51:37;34.07;;;13.33;;
5543;SDS011;2795;47.652;13.128;2023-02-12T08:54:11;30.17;;;13.50;;
5543;SDS011;2795;47.652;13.128;2023-02-12T08:56:41;30.53;;;13.80;;
5543;SDS011;2795;47.652;13.128;2023-02-12T08:59:09;27.23;;;13.70;;
5543;SDS011;2795;47.652;13.128;2023-02-12T09:01:36;31.97;;;13.80;;
5543;SDS011;2795;47.652;13.128;2023-02-12T09:04:04;25.23;;;12.47;;
5543;SDS011;2795;47.652;13.128;2023-02-12T09:06:39;28.03;;;11.83;;
5543;SDS011;2795;47.652;13.128;2023-02-12T09:09:08;25.73;;;12.63;;
5543;SDS011;2795;47.652;13.128;2023-02-12T09:11:35;31.40;;;13.50;;
5543;SDS011;2795;47.652;13.128;2023-02-12T09:14:05;28.00;;;13.40;;
5543;SDS011;2795;47.652;13.128;2023-02-12T09:16:35;27.80;;;13.30;;
5543;SDS011;2795;47.652;13.128;2023-02-12T09:19:03;30.10;;;13.30;;
5543;SDS011;2795;47.652;13.128;2023-02-12T09:21:34;29.07;;;14.00;;
5543;SDS011;2795;47.652;13.128;2023-02-12T09:24:01;30.63;;;14.27;;
5543;SDS011;2795;47.652;13.128;2023-02-12T09:26:29;25.87;;;13.73;;
5543;SDS011;2795;47.652;13.128;2023-02-12T09:28:57;25.20;;;13.13;;
5543;SDS011;2795;47.652;13.128;2023-02-12T09:31:26;26.93;;;13.53;;
5543;SDS011;2795;47.652;13.128;2023-02-12T09:33:56;23.37;;;12.13;;
5543;SDS011;2795;47.652;13.128;2023-02-12T09:36:24;27.90;;;12.83;;
5543;SDS011;2795;47.652;13.128;2023-02-12T09:38:51;37.17;;;13.80;;
5543;SDS011;2795;47.652;13.128;2023-02-12T09:41:33;30.23;;;13.33;;
5543;SDS011;2795;47.652;13.128;2023-02-12T09:47:04;31.30;;;14.30;;
5543;SDS011;2795;47.652;13.128;2023-02-12T09:50:00;25.40;;;13.20;;
5543;SDS011;2795;47.652;13.128;2023-02-12T09:52:47;32.33;;;14.57;;
5543;SDS011;2795;47.652;13.128;2023-02-12T09:55:16;32.03;;;15.23;;
5543;SDS011;2795;47.652;13.128;2023-02-12T09:57:46;31.37;;;13.77;;
5543;SDS011;2795;47.652;13.128;2023-02-12T10:00:24;29.47;;;14.10;;
5543;SDS011;2795;47.652;13.128;2023-02-12T10:03:00;38.53;;;15.37;;
5543;SDS011;2795;47.652;13.128;2023-02-12T10:05:32;33.33;;;14.20;;
5543;SDS011;2795;47.652;13.128;2023-02-12T10:16:20;31.10;;;14.70;;
5543;SDS011;2795;47.652;13.128;2023-02-12T10:24:43;27.33;;;13.83;;
5543;SDS011;2795;47.652;13.128;2023-02-12T10:27:40;36.23;;;14.30;;
5543;SDS011;2795;47.652;13.128;2023-02-12T10:30:20;36.53;;;17.07;;
5543;SDS011;2795;47.652;13.128;2023-02-12T10:32:49;25.40;;;14.37;;
5543;SDS011;2795;47.652;13.128;2023-02-12T10:35:18;32.03;;;14.93;;
5543;SDS011;2795;47.652;13.128;2023-02-12T10:38:06;38.20;;;16.63;;
5543;SDS011;2795;47.652;13.128;2023-02-12T10:40:40;34.00;;;14.13;;
5543;SDS011;2795;47.652;13.128;2023-02-12T10:43:10;28.93;;;15.10;;
5543;SDS011;2795;47.652;13.128;2023-02-12T10:45:40;33.30;;;16.00;;
5543;SDS011;2795;47.652;13.128;2023-02-12T10:53:42;37.63;;;15.10;;
5543;SDS011;2795;47.652;13.128;2023-02-12T11:01:18;36.87;;;16.90;;
5543;SDS011;2795;47.652;13.128;2023-02-12T11:03:48;31.70;;;15.73;;
5543;SDS011;2795;47.652;13.128;2023-02-12T11:06:21;32.00;;;15.70;;
5543;SDS011;2795;47.652;13.128;2023-02-12T11:08:53;21.83;;;12.17;;
5543;SDS011;2795;47.652;13.128;2023-02-12T11:11:30;31.37;;;13.97;;
5543;SDS011;2795;47.652;13.128;2023-02-12T11:14:04;25.43;;;11.27;;
5543;SDS011;2795;47.652;13.128;2023-02-12T11:19:05;24.43;;;11.43;;
5543;SDS011;2795;47.652;13.128;2023-02-12T11:21:33;24.90;;;12.50;;
5543;SDS011;2795;47.652;13.128;2023-02-12T11:27:22;30.03;;;12.17;;
5543;SDS011;2795;47.652;13.128;2023-02-12T11:30:12;30.13;;;12.20;;
5543;SDS011;2795;47.652;13.128;2023-02-12T11:32:40;29.00;;;12.90;;
5543;SDS011;2795;47.652;13.128;2023-02-12T11:35:14;26.07;;;14.20;;
5543;SDS011;2795;47.652;13.128;2023-02-12T11:37:45;24.70;;;12.10;;
5543;SDS011;2795;47.652;13.128;2023-02-12T11:40:14;27.70;;;11.50;;
5543;SDS011;2795;47.652;13.128;2023-02-12T11:42:50;21.10;;;9.73;;
5543;SDS011;2795;47.652;13.128;2023-02-12T11:45:20;22.73;;;9.60;;
5543;SDS011;2795;47.652;13.128;2023-02-12T11:47:51;20.10;;;9.30;;
5543;SDS011;2795;47.652;13.128;2023-02-12T11:52:53;20.03;;;9.67;;
5543;SDS011;2795;47.652;13.128;2023-02-12T11:55:26;20.00;;;10.37;;
5543;SDS011;2795;47.652;13.128;2023-02-12T11:58:11;19.60;;;9.50;;
5543;SDS011;2795;47.652;13.128;2023-02-12T12:01:04;22.43;;;9.73;;
5543;SDS011;2795;47.652;13.128;2023-02-12T12:06:56;13.23;;;7.07;;
5543;SDS011;2795;47.652;13.128;2023-02-12T12:09:28;14.90;;;6.30;;
5543;SDS011;2795;47.652;13.128;2023-02-12T12:12:01;16.83;;;7.67;;
5543;SDS011;2795;47.652;13.128;2023-02-12T12:14:47;14.67;;;6.60;;
5543;SDS011;2795;47.652;13.128;2023-02-12T12:20:46;11.00;;;5.70;;
5543;SDS011;2795;47.652;13.128;2023-02-12T12:23:18;13.00;;;5.50;;
5543;SDS011;2795;47.652;13.128;2023-02-12T12:25:50;9.10;;;5.20;;
5543;SDS011;2795;47.652;13.128;2023-02-12T12:36:27;14.80;;;6.67;;
5543;SDS011;2795;47.652;13.128;2023-02-12T12:50:06;19.73;;;7.73;;
5543;SDS011;2795;47.652;13.128;2023-02-12T12:55:36;17.50;;;8.83;;
5543;SDS011;2795;47.652;13.128;2023-02-12T13:01:25;22.70;;;7.83;;
5543;SDS011;2795;47.652;13.128;2023-02-12T13:06:51;18.17;;;8.17;;
5543;SDS011;2795;47.652;13.128;2023-02-12T13:17:41;16.40;;;7.90;;
5543;SDS011;2795;47.652;13.128;2023-02-12T13:22:56;18.93;;;8.30;;
5543;SDS011;2795;47.652;13.128;2023-02-12T13:25:27;19.63;;;7.80;;
5543;SDS011;2795;47.652;13.128;2023-02-12T13:27:58;14.77;;;7.07;;
5543;SDS011;2795;47.652;13.128;2023-02-12T13:30:27;14.47;;;6.63;;
5543;SDS011;2795;47.652;13.128;2023-02-12T13:33:21;14.67;;;6.37;;
5543;SDS011;2795;47.652;13.128;2023-02-12T13:35:53;12.03;;;5.60;;
5543;SDS011;2795;47.652;13.128;2023-02-12T13:38:26;10.80;;;5.10;;
5543;SDS011;2795;47.652;13.128;2023-02-12T13:40:57;9.17;;;5.83;;
5543;SDS011;2795;47.652;13.128;2023-02-12T13:43:34;9.20;;;5.10;;
5543;SDS011;2795;47.652;13.128;2023-02-12T13:46:20;14.10;;;5.20;;
5543;SDS011;2795;47.652;13.128;2023-02-12T13:57:00;8.23;;;5.17;;
5543;SDS011;2795;47.652;13.128;2023-02-12T14:02:04;17.40;;;4.50;;
5543;SDS011;2795;47.652;13.128;2023-02-12T14:10:40;12.83;;;5.57;;
5543;SDS011;2795;47.652;13.128;2023-02-12T14:13:13;9.33;;;4.80;;
5543;SDS011;2795;47.652;13.128;2023-02-12T14:15:46;11.57;;;5.77;;
5543;SDS011;2795;47.652;13.128;2023-02-12T14:18:35;11.47;;;5.60;;
5543;SDS011;2795;47.652;13.128;2023-02-12T14:23:42;16.63;;;5.53;;
5543;SDS011;2795;47.652;13.128;2023-02-12T14:26:12;11.10;;;5.73;;
5543;SDS011;2795;47.652;13.128;2023-02-12T14:29:05;12.87;;;6.00;;
5543;SDS011;2795;47.652;13.128;2023-02-12T14:31:35;16.97;;;6.60;;
5543;SDS011;2795;47.652;13.128;2023-02-12T14:41:47;11.40;;;5.80;;
5543;SDS011;2795;47.652;13.128;2023-02-12T14:47:48;10.50;;;5.50;;
5543;SDS011;2795;47.652;13.128;2023-02-12T14:50:02;13.37;;;6.23;;
5543;SDS011;2795;47.652;13.128;2023-02-12T14:52:42;18.80;;;7.70;;
5543;SDS011;2795;47.652;13.128;2023-02-12T14:55:19;13.87;;;6.60;;
5543;SDS011;2795;47.652;13.128;2023-02-12T14:57:50;12.87;;;6.43;;
5543;SDS011;2795;47.652;13.128;2023-02-12T15:00:26;13.33;;;7.23;;
5543;SDS011;2795;47.652;13.128;2023-02-12T15:03:01;14.37;;;6.60;;
5543;SDS011;2795;47.652;13.128;2023-02-12T15:05:53;16.07;;;6.90;;
5543;SDS011;2795;47.652;13.128;2023-02-12T15:14:59;18.57;;;7.00;;
5543;SDS011;2795;47.652;13.128;2023-02-12T15:17:07;15.63;;;7.13;;
5543;SDS011;2795;47.652;13.128;2023-02-12T15:20:23;26.20;;;7.90;;
5543;SDS011;2795;47.652;13.128;2023-02-12T15:22:52;27.70;;;8.00;;
5543;SDS011;2795;47.652;13.128;2023-02-12T15:27:54;14.87;;;6.30;;
5543;SDS011;2795;47.652;13.128;2023-02-12T15:30:38;17.53;;;7.60;;
5543;SDS011;2795;47.652;13.128;2023-02-12T15:33:25;15.47;;;8.00;;
5543;SDS011;2795;47.652;13.128;2023-02-12T15:35:58;18.43;;;7.50;;
5543;SDS011;2795;47.652;13.128;2023-02-12T15:38:31;14.17;;;7.00;;
5543;SDS011;2795;47.652;13.128;2023-02-12T15:41:37;17.13;;;8.20;;
5543;SDS011;2795;47.652;13.128;2023-02-12T15:47:12;19.90;;;7.93;;
5543;SDS011;2795;47.652;13.128;2023-02-12T15:49:58;16.77;;;7.80;;
5543;SDS011;2795;47.652;13.128;2023-02-12T15:52:33;12.43;;;7.17;;
5543;SDS011;2795;47.652;13.128;2023-02-12T15:55:03;16.87;;;7.73;;
5543;SDS011;2795;47.652;13.128;2023-02-12T15:57:32;19.37;;;8.03;;
5543;SDS011;2795;47.652;13.128;2023-02-12T16:00:03;12.70;;;6.83;;
5543;SDS011;2795;47.652;13.128;2023-02-12T16:02:38;16.37;;;6.60;;
5543;SDS011;2795;47.652;13.128;2023-02-12T16:05:09;18.00;;;6.40;;
5543;SDS011;2795;47.652;13.128;2023-02-12T16:07:40;15.60;;;6.53;;
5543;SDS011;2795;47.652;13.128;2023-02-12T16:10:09;19.93;;;6.20;;
5543;SDS011;2795;47.652;13.128;2023-02-12T16:12:40;18.40;;;6.87;;
5543;SDS011;2795;47.652;13.128;2023-02-12T16:15:22;12.20;;;6.50;;
5543;SDS011;2795;47.652;13.128;2023-02-12T16:17:51;13.53;;;6.50;;
5543;SDS011;2795;47.652;13.128;2023-02-12T16:20:21;23.10;;;8.03;;
5543;SDS011;2795;47.652;13.128;2023-02-12T16:22:55;18.47;;;7.37;;
5543;SDS011;2795;47.652;13.128;2023-02-12T16:25:29;12.87;;;7.70;;
5543;SDS011;2795;47.652;13.128;2023-02-12T16:28:03;23.77;;;10.50;;
5543;SDS011;2795;47.652;13.128;2023-02-12T16:30:31;19.23;;;9.30;;
5543;SDS011;2795;47.652;13.128;2023-02-12T16:32:59;22.87;;;8.50;;
5543;SDS011;2795;47.652;13.128;2023-02-12T16:35:33;16.63;;;7.87;;
5543;SDS011;2795;47.652;13.128;2023-02-12T16:46:30;25.03;;;10.27;;
5543;SDS011;2795;47.652;13.128;2023-02-12T16:48:59;14.73;;;7.33;;
5543;SDS011;2795;47.652;13.128;2023-02-12T16:51:34;27.50;;;10.00;;
5543;SDS011;2795;47.652;13.128;2023-02-12T16:54:04;19.20;;;9.37;;
5543;SDS011;2795;47.652;13.128;2023-02-12T16:56:54;21.37;;;9.17;;
5543;SDS011;2795;47.652;13.128;2023-02-12T16:59:24;25.83;;;9.17;;
5543;SDS011;2795;47.652;13.128;2023-02-12T17:02:03;21.33;;;11.07;;
5543;SDS011;2795;47.652;13.128;2023-02-12T17:04:36;21.43;;;9.67;;
5543;SDS011;2795;47.652;13.128;2023-02-12T17:07:04;19.87;;;9.37;;
5543;SDS011;2795;47.652;13.128;2023-02-12T17:09:42;36.63;;;9.83;;
5543;SDS011;2795;47.652;13.128;2023-02-12T17:12:09;22.50;;;11.10;;
5543;SDS011;2795;47.652;13.128;2023-02-12T17:14:40;32.23;;;12.23;;
5543;SDS011;2795;47.652;13.128;2023-02-12T17:17:09;22.20;;;10.10;;
5543;SDS011;2795;47.652;13.128;2023-02-12T17:19:39;32.73;;;9.40;;
5543;SDS011;2795;47.652;13.128;2023-02-12T17:22:07;21.90;;;8.67;;
5543;SDS011;2795;47.652;13.128;2023-02-12T17:24:43;28.63;;;9.70;;
5543;SDS011;2795;47.652;13.128;2023-02-12T17:27:16;21.20;;;8.30;;
5543;SDS011;2795;47.652;13.128;2023-02-12T17:29:49;22.50;;;8.40;;
5543;SDS011;2795;47.652;13.128;2023-02-12T17:32:17;21.47;;;10.07;;
5543;SDS011;2795;47.652;13.128;2023-02-12T17:34:45;21.47;;;9.03;;
5543;SDS011;2795;47.652;13.128;2023-02-12T17:37:15;25.87;;;11.87;;
5543;SDS011;2795;47.652;13.128;2023-02-12T17:39:42;37.43;;;11.87;;
5543;SDS011;2795;47.652;13.128;2023-02-12T17:42:11;29.77;;;10.73;;
5543;SDS011;2795;47.652;13.128;2023-02-12T17:44:37;27.27;;;10.40;;
5543;SDS011;2795;47.652;13.128;2023-02-12T17:47:05;21.73;;;10.37;;
5543;SDS011;2795;47.652;13.128;2023-02-12T17:49:32;24.37;;;10.07;;
5543;SDS011;2795;47.652;13.128;2023-02-12T17:52:01;21.07;;;9.87;;
5543;SDS011;2795;47.652;13.128;2023-02-12T17:54:32;27.87;;;10.70;;
5543;SDS011;2795;47.652;13.128;2023-02-12T17:57:02;18.10;;;8.50;;
5543;SDS011;2795;47.652;13.128;2023-02-12T17:59:31;18.10;;;8.63;;
5543;SDS011;2795;47.652;13.128;2023-02-12T18:01:58;14.67;;;8.10;;
5543;SDS011;2795;47.652;13.128;2023-02-12T18:04:25;19.10;;;8.87;;
5543;SDS011;2795;47.652;13.128;2023-02-12T18:06:55;19.40;;;8.47;;